CST,Max TemperatureF,Mean TemperatureF,Min TemperatureF,Max Dew PointF,MeanDew PointF,Min DewpointF,Max Humidity, Mean Humidity, Min Humidity, Max Sea Level PressureIn, Mean Sea Level PressureIn, Min Sea Level PressureIn, Max VisibilityMiles, Mean VisibilityMiles, Min VisibilityMiles, Max Wind SpeedMPH, Mean Wind SpeedMPH, Max Gust SpeedMPH,PrecipitationIn, CloudCover, Events, WindDirDegrees
2013-11-1,62,51,39,42,39,36,86,63,39,30.04,29.85,29.69,10,10,6,29,10,40,0.04,2,Rain,292
2013-11-2,59,48,37,37,35,31,85,61,37,30.25,30.17,30.05,10,10,10,15,6,23,0.00,0,,299
2013-11-3,60,47,34,38,35,31,92,66,39,30.17,30.02,29.86,10,10,10,29,15,37,0.00,0,,144
2013-11-4,64,58,52,51,45,40,77,63,48,30.08,29.96,29.85,10,10,10,22,10,30,0.00,5,,174
2013-11-5,61,52,42,58,53,39,93,87,80,30.08,29.97,29.83,10,5,2,21,11,29,0.48,8,Rain,163
2013-11-6,46,38,30,38,33,27,89,75,60,30.37,30.23,30.01,10,10,10,23,9,29,T,6,,297
2013-11-7,58,43,27,36,31,26,92,63,33,30.45,30.38,30.33,10,10,2,18,4,23,0.00,0,,294
2013-11-8,69,51,32,36,31,29,89,57,24,30.32,30.05,29.86,10,10,10,30,11,46,0.00,0,,178
2013-11-9,68,52,35,39,35,32,92,60,27,30.32,30.16,29.98,10,10,9,13,3,17,0.00,0,,8
2013-11-10,59,47,34,39,34,29,82,61,39,30.44,30.33,30.22,10,10,10,13,5,16,0.00,3,,116
2013-11-11,64,46,27,52,37,14,86,72,58,30.71,30.33,30.17,10,9,3,26,11,35,T,7,Rain,342
2013-11-12,37,27,16,16,12,7,74,52,29,30.94,30.82,30.72,10,10,10,21,5,29,0.00,0,,343
2013-11-13,50,35,19,19,16,12,71,49,27,30.69,30.42,30.16,10,10,10,23,10,29,0.00,0,,184
2013-11-14,60,49,38,30,26,20,54,40,26,30.14,30.02,29.94,10,10,10,18,11,26,0.00,1,,191
2013-11-15,60,47,34,45,37,28,77,62,46,29.96,29.84,29.69,10,10,10,20,8,26,0.00,1,,166
2013-11-16,75,64,53,58,54,46,80,61,41,29.66,29.47,29.36,10,10,9,31,19,48,T,4,,182
2013-11-17,67,56,44,58,35,18,78,49,19,30.11,29.68,29.30,10,10,10,31,16,43,0.00,0,Rain,261
2013-11-18,61,46,30,33,28,21,92,57,22,30.32,30.24,30.12,10,10,10,9,3,12,0.00,0,,292
2013-11-19,64,48,31,29,25,20,78,49,19,30.25,30.09,29.94,10,10,10,25,13,33,0.00,4,,140
2013-11-20,56,50,43,37,32,21,76,52,28,29.96,29.91,29.83,10,9,2,23,10,29,0.28,5,Rain-Thunderstorm,133
2013-11-21,50,39,28,42,31,23,89,83,76,30.52,30.24,29.96,10,5,2,23,11,31,0.08,8,Rain-Snow,347
2013-11-22,29,26,23,23,20,17,81,75,69,30.71,30.64,30.52,10,9,7,23,10,29,0.00,5,,333
2013-11-23,29,23,16,20,12,8,81,64,46,30.87,30.79,30.68,10,10,10,20,9,24,0.00,0,,358
2013-11-24,29,22,14,13,9,7,80,60,39,30.80,30.61,30.35,10,10,10,13,6,15,0.00,3,,147
2013-11-25,43,36,29,25,19,13,78,61,44,30.31,30.25,30.19,10,10,9,13,6,17,0.00,5,,232
2013-11-26,41,31,20,24,17,9,88,59,30,30.47,30.34,30.22,10,9,7,28,11,36,0.00,2,,318
2013-11-27,36,26,15,13,10,6,73,53,32,30.50,30.36,30.19,10,10,10,13,6,19,0.00,0,,231
2013-11-28,42,32,22,22,18,13,81,61,41,30.52,30.37,30.18,10,10,9,15,5,18,0.00,0,,345
2013-11-29,55,38,20,27,22,16,84,58,32,30.52,30.39,30.23,10,9,7,18,6,24,0.00,0,,140
2013-11-30,57,43,29,35,30,24,89,66,43,30.20,30.14,30.09,10,8,2,9,2,14,0.00,0,,166